Offutt Air Force Base
KOFF : now visible

Airfield :











YOU CAN JOIN US ON...

 
LOGIN :

Register | Disclaimer

   EN    FR    IT 

 









Legend :    VFR   Marginal VFR   IFR   Intensive IFR   Very Intensive IFR
Visi :
Ceiling :
>= 8 km
>= 3000ft
5 to 8 km
1000 to 3000 ft
1500m to 5 km
500 to 1000 ft
800 to 1500m
200 to 500 ft
< 800m
< 200 ft
Symbols :   Thunderstorms  Fog  Heavy snow  Heavy precipitations  Wind > 20 kt







- Airport Elevation : 1052 ft


KOFF - Offutt Air Force Base

CURRENT METAR :
  • 191956Z 02007KT 10SM CLR 18/M02 A3005 RMK AO2A ALTSG/SLP ESTMD TSNO CHINO RWY30 $

EXPIRED METARs :
  • 191856Z 00000KT 10SM CLR 17/M02 A3008 RMK AO2A ALSTG/SLP ESTMD TSNO CHINO RWY30 $
  • 191756Z 35005KT 10SM CLR 17/M02 RMK AO2A ALSTG/SLP ESTMD TSNO CHINO RWY30 $
  • 191656Z 35011KT 10SM CLR 15/M03 A3011 RMK AO2A SLP198 ALSTG/SLP ESTMD RVRNO $

TAF TAF KOFF
Valid from the 19 at 18:00 until the 21 at 00:00 UTC


191800Z 1918/2024 34009KT 9999 SKC QNH2990INS WND 19006KT AFT 2006
BECMG 2015/2016 18012KT 9999 SKC QNH2967INS TX17/1921Z TN07/2012Z
KZMP FIR / North America



MET'MAP, your aeronautical weather chart ! - Copyright ORBIFLY December 2007 - Disclaimer

ORBIFLY MET'MAP TEAM :

Programming & Development : Alexandra Zaïnal
Concept & Development : Baudouin d'Aumeries
Co-Development & Prog : Marc-Olivier Méhu
Technical & hardware support : Manuel Goepfert

Contact : metmap@orbifly.com




SOURCES & CREDITS :

   NOAA       Earth
Advisory